Luminous Kobe-2 — JJ3868 — position and weather

sailwx.info

Track history (hours):
 
Tides and Currents Weather Stations Pressure Air Temp Water Temp Dewpoint Dewpoint Depression Visibility Wind Speed Wind Dir Waves Ship Positions

Luminous Kobe-2

Last reported at 2017-Sep-22 02:01 UTC. Time now 2017-Sep-22 08:10 UTC.
Position N 34°41' E 135°11'.

Length 105 m; draft 4.4 m.

Type: Passenger vessel. MMSI: 431000469.

Date/timePositionNaut miles runAvg speedWind from/ knotsBaromVisibWave heightAir tempDewpointWater temp
2017-Sep-22 02:01N 34°41' E 135°11'0 0.0
2017-Sep-22 01:31N 34°41' E 135°11'0 0.0
2017-Sep-22 01:01N 34°41' E 135°11'0 0.0
2017-Sep-22 00:31N 34°41' E 135°11'0 0.0
2017-Sep-22 00:01N 34°41' E 135°11'0 0.0
2017-Sep-21 23:31N 34°41' E 135°11'0 0.0
2017-Sep-21 23:01N 34°41' E 135°11'0 0.0
2017-Sep-21 22:31N 34°41' E 135°11'0 0.0
2017-Sep-21 22:01N 34°41' E 135°11'0 0.0
2017-Sep-21 21:31N 34°41' E 135°11'0 0.0
2017-Sep-21 21:01N 34°41' E 135°11'0 0.0
2017-Sep-21 20:31N 34°41' E 135°11'0 0.0
2017-Sep-21 20:01N 34°41' E 135°11'0 0.0
2017-Sep-21 19:31N 34°41' E 135°11'0 0.0
2017-Sep-21 19:01N 34°41' E 135°11'0 0.0
2017-Sep-21 18:31N 34°41' E 135°11'0 0.0
2017-Sep-21 18:01N 34°41' E 135°11'0 0.0
2017-Sep-21 17:31N 34°41' E 135°11'0 0.0
2017-Sep-21 17:00N 34°41' E 135°11'0 0.0
2017-Sep-21 16:31N 34°41' E 135°11'0 0.0
2017-Sep-21 16:00N 34°41' E 135°11'0 0.0
2017-Sep-21 15:31N 34°41' E 135°11'0 0.0
2017-Sep-21 15:01N 34°41' E 135°11'0 0.0
2017-Sep-21 14:30N 34°41' E 135°11'0 0.0
2017-Sep-21 14:01N 34°41' E 135°11'0 0.0
2017-Sep-21 13:31N 34°41' E 135°11'0 0.0
2017-Sep-21 13:00N 34°41' E 135°11'0 0.0
2017-Sep-21 12:31N 34°41' E 135°11'2 3.0
2017-Sep-21 12:01N 34°39' E 135°11'713.8
2017-Sep-21 11:30N 34°35' E 135°05'611.1
2017-Sep-21 11:00N 34°37' E 134°58'713.7
2017-Sep-21 10:31N 34°37' E 135°07'610.9
2017-Sep-21 10:00N 34°41' E 135°11'0 0.0
2017-Sep-21 09:25N 34°41' E 135°11'1 2.5
2017-Sep-21 09:01N 34°40' E 135°12'4 8.4
2017-Sep-21 08:31N 34°37' E 135°07'5 9.4
2017-Sep-21 08:00N 34°41' E 135°11'0 0.0
2017-Sep-21 07:30N 34°41' E 135°11'0 0.0
2017-Sep-21 06:42N 34°41' E 135°11'0 0.0
2017-Sep-21 06:30N 34°41' E 135°11'0 0.0
2017-Sep-21 06:00N 34°41' E 135°11'0 0.0
2017-Sep-21 05:30N 34°41' E 135°11'0 0.0
2017-Sep-21 05:00N 34°41' E 135°11'3 5.1
2017-Sep-21 04:30N 34°38' E 135°11'4 7.6
2017-Sep-21 04:00N 34°37' E 135°06'510.2
2017-Sep-21 03:30N 34°38' E 135°12'3 6.8
2017-Sep-21 03:00N 34°41' E 135°11'0 0.0
2017-Sep-21 02:30N 34°41' E 135°11'0 0.0
2017-Sep-21 01:48N 34°41' E 135°11'0 0.0
2017-Sep-21 01:30N 34°41' E 135°11'0 0.0
2017-Sep-21 01:00N 34°41' E 135°11'0 0.0
2017-Sep-21 00:30N 34°41' E 135°11'0 0.0
2017-Sep-21 00:00N 34°41' E 135°11'0 0.0
2017-Sep-20 23:30N 34°41' E 135°11'0 0.0
2017-Sep-20 23:00N 34°41' E 135°11'0 0.0
2017-Sep-20 22:30N 34°41' E 135°11'0 0.0
2017-Sep-20 22:00N 34°41' E 135°11'0 0.0
2017-Sep-20 21:30N 34°41' E 135°11'0 0.0
2017-Sep-20 20:48N 34°41' E 135°11'0 0.0
2017-Sep-20 20:30N 34°41' E 135°11'0 0.0
2017-Sep-20 20:00N 34°41' E 135°11'0 0.0
2017-Sep-20 19:30N 34°41' E 135°11'0 0.0
2017-Sep-20 19:00N 34°41' E 135°11'0 0.0
2017-Sep-20 18:30N 34°41' E 135°11'0 0.0
2017-Sep-20 18:00N 34°41' E 135°11'0 0.0
2017-Sep-20 17:30N 34°41' E 135°11'0 0.0
2017-Sep-20 17:00N 34°41' E 135°11'0 0.0
2017-Sep-20 16:30N 34°41' E 135°11'0 0.0
2017-Sep-20 16:00N 34°41' E 135°11'0 0.0
2017-Sep-20 15:24N 34°41' E 135°11'0 0.0
2017-Sep-20 15:00N 34°41' E 135°11'0 0.0
2017-Sep-20 14:00N 34°41' E 135°11'0 0.0
2017-Sep-20 13:30N 34°41' E 135°11'0 0.0
2017-Sep-20 12:54N 34°41' E 135°11'0 0.0
2017-Sep-20 12:30N 34°41' E 135°11'1 2.4
2017-Sep-20 12:01N 34°40' E 135°12'612.9
2017-Sep-20 11:30N 34°35' E 135°06'611.9
2017-Sep-20 11:00N 34°37' E 134°59'713.5
2017-Sep-20 10:31N 34°37' E 135°07'510.5
2017-Sep-20 10:00N 34°41' E 135°11'0 0.0
2017-Sep-20 09:21N 34°41' E 135°11'1 3.1
2017-Sep-20 09:00N 34°40' E 135°12'4 8.8
2017-Sep-20 08:30N 34°37' E 135°07'510.1
2017-Sep-20 08:01N 34°41' E 135°11'0 0.0
2017-Sep-20 07:28N 34°41' E 135°11'0 0.0
2017-Sep-20 06:58N 34°41' E 135°11'0 0.0
2017-Sep-20 06:28N 34°41' E 135°11'0 0.0
2017-Sep-20 05:46N 34°41' E 135°11'0 0.0
2017-Sep-20 05:22N 34°41' E 135°11'0 0.0
2017-Sep-20 05:00N 34°41' E 135°11'3 5.1
2017-Sep-20 04:30N 34°38' E 135°11'3 5.6
2017-Sep-20 04:00N 34°37' E 135°08'4 7.3
2017-Sep-20 03:30N 34°37' E 135°12'4 6.9
2017-Sep-20 03:00N 34°41' E 135°11'0 0.0
2017-Sep-20 02:30N 34°41' E 135°11'0 0.0
2017-Sep-20 02:00N 34°41' E 135°11'0 0.0
2017-Sep-20 01:30N 34°41' E 135°11'0 0.0
2017-Sep-20 01:00N 34°41' E 135°11'0 0.0
2017-Sep-20 00:30N 34°41' E 135°11'0 0.0
2017-Sep-20 00:00N 34°41' E 135°11'0 0.0
2017-Sep-19 23:30N 34°41' E 135°11'0 0.0
2017-Sep-19 23:00N 34°41' E 135°11'0 0.0
2017-Sep-19 22:30N 34°41' E 135°11'0 0.0
2017-Sep-19 22:00N 34°41' E 135°11'0 0.0
2017-Sep-19 21:30N 34°41' E 135°11'0 0.0
2017-Sep-19 21:00N 34°41' E 135°11'0 0.0
2017-Sep-19 20:30N 34°41' E 135°11'0 0.0
2017-Sep-19 20:00N 34°41' E 135°11'0 0.0
2017-Sep-19 19:30N 34°41' E 135°11'0 0.0
2017-Sep-19 19:00N 34°41' E 135°11'0 0.0
2017-Sep-19 18:30N 34°41' E 135°11'0 0.0
2017-Sep-19 18:00N 34°41' E 135°11'0 0.0
2017-Sep-19 17:30N 34°41' E 135°11'0 0.0
2017-Sep-19 17:00N 34°41' E 135°11'0 0.0
2017-Sep-19 16:30N 34°41' E 135°11'0 0.0
2017-Sep-19 16:00N 34°41' E 135°11'0 0.0
2017-Sep-19 15:30N 34°41' E 135°11'0 0.0
2017-Sep-19 15:00N 34°41' E 135°11'0 0.0
2017-Sep-19 14:30N 34°41' E 135°11'0 0.0
2017-Sep-19 14:00N 34°41' E 135°11'0 0.0
2017-Sep-19 13:30N 34°41' E 135°11'0 0.0
2017-Sep-19 13:00N 34°41' E 135°11'0 0.0
2017-Sep-19 12:30N 34°41' E 135°11'1 2.5
2017-Sep-19 12:00N 34°40' E 135°11'612.8
2017-Sep-19 11:31N 34°35' E 135°06'612.2
2017-Sep-19 11:00N 34°37' E 134°59'713.5
2017-Sep-19 10:30N 34°37' E 135°07'510.7
2017-Sep-19 10:00N 34°41' E 135°11'0 0.0
2017-Sep-19 09:30N 34°41' E 135°11'1 1.8
2017-Sep-19 09:00N 34°40' E 135°12'4 8.7
2017-Sep-19 08:30N 34°37' E 135°07'5 9.5
2017-Sep-19 08:00N 34°41' E 135°11'0 0.0
2017-Sep-19 07:30N 34°41' E 135°11'0 0.0
2017-Sep-19 06:55N 34°41' E 135°11'0 0.0
2017-Sep-19 06:25N 34°41' E 135°11'0 0.0
2017-Sep-19 05:55N 34°41' E 135°11'0 0.0
2017-Sep-19 05:19N 34°41' E 135°11'0 0.0
2017-Sep-19 05:00N 34°41' E 135°11'2 5.0
2017-Sep-19 04:30N 34°38' E 135°11'4 7.5
2017-Sep-19 04:00N 34°37' E 135°07'5 9.9
2017-Sep-19 03:30N 34°38' E 135°13'3 6.9
2017-Sep-19 03:00N 34°41' E 135°11'0 0.0
2017-Sep-19 02:26N 34°41' E 135°11'0 0.0
2017-Sep-19 01:50N 34°41' E 135°11'0 0.0
2017-Sep-19 01:26N 34°41' E 135°11'0 0.0
2017-Sep-19 00:56N 34°41' E 135°11'0 0.0
2017-Sep-19 00:26N 34°41' E 135°11'0 0.0
2017-Sep-18 23:56N 34°41' E 135°11'0 0.0
2017-Sep-18 23:26N 34°41' E 135°11'0 0.0
2017-Sep-18 22:56N 34°41' E 135°11'0 0.0
2017-Sep-18 22:26N 34°41' E 135°11'0 0.0
2017-Sep-18 21:56N 34°41' E 135°11'0 0.0
2017-Sep-18 21:26N 34°41' E 135°11'0 0.0
2017-Sep-18 20:56N 34°41' E 135°11'0 0.0
2017-Sep-18 20:26N 34°41' E 135°11'0 0.0
2017-Sep-18 19:50N 34°41' E 135°11'0 0.0
2017-Sep-18 19:14N 34°41' E 135°11'0 0.0
2017-Sep-18 18:56N 34°41' E 135°11'0 0.0
2017-Sep-18 18:14N 34°41' E 135°11'0 0.0
2017-Sep-18 17:44N 34°41' E 135°11'0 0.0
2017-Sep-18 17:26N 34°41' E 135°11'0 0.0
2017-Sep-18 16:56N 34°41' E 135°11'0 0.0
2017-Sep-18 16:26N 34°41' E 135°11'0 0.0
2017-Sep-18 15:56N 34°41' E 135°11'0 0.0
2017-Sep-18 15:26N 34°41' E 135°11'0 0.0
2017-Sep-18 14:56N 34°41' E 135°11'0 0.0
2017-Sep-18 14:26N 34°41' E 135°11'0 0.0
2017-Sep-18 13:56N 34°41' E 135°11'0 0.0
2017-Sep-18 13:20N 34°41' E 135°11'0 0.0
2017-Sep-18 12:56N 34°41' E 135°11'0 0.0
2017-Sep-18 12:26N 34°41' E 135°11'1 3.0
2017-Sep-18 12:00N 34°40' E 135°11'612.5
2017-Sep-18 11:30N 34°35' E 135°06'611.9
2017-Sep-18 11:01N 34°37' E 134°59'713.9
2017-Sep-18 10:30N 34°37' E 135°07'5 9.8
2017-Sep-18 10:00N 34°41' E 135°11'0 0.0
2017-Sep-18 09:30N 34°41' E 135°11'0 0.0
2017-Sep-18 09:00N 34°41' E 135°11'2 4.6
2017-Sep-18 08:30N 34°39' E 135°11'5 9.0
2017-Sep-18 08:00N 34°37' E 135°06'612.1
2017-Sep-18 07:31N 34°37' E 135°13'4 7.4
2017-Sep-18 07:01N 34°41' E 135°11'0 0.0
2017-Sep-18 06:31N 34°41' E 135°11'0 0.0
2017-Sep-18 06:00N 34°41' E 135°11'0 0.0
2017-Sep-18 05:31N 34°41' E 135°11'0 0.0
2017-Sep-18 05:01N 34°41' E 135°11'3 5.3
2017-Sep-18 04:30N 34°38' E 135°11'3 5.7
2017-Sep-18 04:01N 34°37' E 135°08'4 7.2
2017-Sep-18 03:30N 34°38' E 135°12'3 6.4
2017-Sep-18 02:58N 34°41' E 135°11'0 0.0
2017-Sep-18 02:28N 34°41' E 135°11'0 0.0
2017-Sep-18 01:58N 34°41' E 135°11'0 0.0
2017-Sep-18 01:22N 34°41' E 135°11'0 0.0
2017-Sep-18 00:58N 34°41' E 135°11'0 0.0
2017-Sep-18 00:28N 34°41' E 135°11'0 0.0
2017-Sep-17 23:58N 34°41' E 135°11'0 0.0
2017-Sep-17 23:28N 34°41' E 135°11'0 0.0
2017-Sep-17 22:58N 34°41' E 135°11'1 1.5
2017-Sep-17 22:30N 34°40' E 135°12'713.1
2017-Sep-17 22:00N 34°34' E 135°11'610.3
2017-Sep-17 21:27N 34°28' E 135°10'0 0.1
2017-Sep-17 20:57N 34°28' E 135°10'0 0.0
2017-Sep-17 20:27N 34°28' E 135°10'0 0.0
2017-Sep-17 19:58N 34°28' E 135°10'0 0.0
2017-Sep-17 19:21N 34°28' E 135°10'0 0.0
2017-Sep-17 19:00N 34°28' E 135°10'0 0.0
2017-Sep-17 18:21N 34°28' E 135°10'0 0.0
2017-Sep-17 17:49N 34°28' E 135°10'0 0.0
2017-Sep-17 17:16N 34°28' E 135°10'0 0.0
2017-Sep-17 16:55N 34°28' E 135°10'0 0.0
2017-Sep-17 16:23N 34°28' E 135°10'0 0.0
2017-Sep-17 15:51N 34°28' E 135°10'0 0.0
2017-Sep-17 15:28N 34°28' E 135°10'0 0.0
2017-Sep-17 14:58N 34°28' E 135°10'0 0.0
2017-Sep-17 14:29N 34°28' E 135°10'0 0.1
2017-Sep-17 13:55N 34°28' E 135°10'0 0.3
2017-Sep-17 13:30N 34°28' E 135°10'0 0.1
2017-Sep-17 13:00N 34°28' E 135°10'0 0.1
2017-Sep-17 12:29N 34°28' E 135°10'0 0.1
2017-Sep-17 11:59N 34°28' E 135°10'0 0.2
2017-Sep-17 11:26N 34°28' E 135°10'0 0.0
2017-Sep-17 11:00N 34°28' E 135°10'0 0.0
2017-Sep-17 10:30N 34°28' E 135°10'0 0.1
2017-Sep-17 10:00N 34°28' E 135°10'0 0.0
2017-Sep-17 09:23N 34°28' E 135°10'0 0.0
2017-Sep-17 08:53N 34°28' E 135°10'0 0.0
2017-Sep-17 08:29N 34°28' E 135°10'0 0.0
2017-Sep-17 07:59N 34°28' E 135°10'0 0.0
2017-Sep-17 07:29N 34°28' E 135°10'0 0.0
2017-Sep-17 06:53N 34°28' E 135°10'0 0.1
2017-Sep-17 06:29N 34°28' E 135°10'0 0.0
2017-Sep-17 05:59N 34°28' E 135°10'0 0.0
2017-Sep-17 05:23N 34°28' E 135°10'0 0.0
2017-Sep-17 04:59N 34°28' E 135°10'0 0.0
2017-Sep-17 04:23N 34°28' E 135°10'0 0.0
2017-Sep-17 03:59N 34°28' E 135°10'0 0.0
2017-Sep-17 03:29N 34°28' E 135°10'0 0.0
2017-Sep-17 02:59N 34°28' E 135°10'0 0.0
2017-Sep-17 02:23N 34°28' E 135°10'0 0.0
2017-Sep-17 01:59N 34°28' E 135°10'0 0.0
2017-Sep-17 01:23N 34°28' E 135°10'0 0.0
2017-Sep-17 00:59N 34°28' E 135°10'0 0.0
2017-Sep-17 00:23N 34°28' E 135°10'0 0.0
2017-Sep-16 23:53N 34°28' E 135°10'0 0.0
2017-Sep-16 23:29N 34°28' E 135°10'0 0.0
2017-Sep-16 22:53N 34°28' E 135°10'0 0.0
2017-Sep-16 22:23N 34°28' E 135°10'0 0.0
2017-Sep-16 21:53N 34°28' E 135°10'0 0.1
2017-Sep-16 21:29N 34°28' E 135°10'0 0.0
2017-Sep-16 20:59N 34°28' E 135°10'0 0.1
2017-Sep-16 20:29N 34°28' E 135°10'0 0.0
2017-Sep-16 19:59N 34°28' E 135°10'0 0.0
2017-Sep-16 19:23N 34°28' E 135°10'0 0.0
2017-Sep-16 18:47N 34°28' E 135°10'0 0.1
2017-Sep-16 18:29N 34°28' E 135°10'0 0.0
2017-Sep-16 18:00N 34°28' E 135°10'0 0.0
2017-Sep-16 17:29N 34°28' E 135°10'0 0.0
2017-Sep-16 16:59N 34°28' E 135°10'0 0.0
2017-Sep-16 16:23N 34°28' E 135°10'0 0.0
2017-Sep-16 15:47N 34°28' E 135°10'0 0.0
2017-Sep-16 15:23N 34°28' E 135°10'1 3.3
2017-Sep-16 15:00N 34°29' E 135°10'815.7
2017-Sep-16 14:30N 34°37' E 135°11'4 8.2
2017-Sep-16 14:00N 34°41' E 135°11'0 0.0
2017-Sep-16 13:30N 34°41' E 135°11'0 0.0
2017-Sep-16 13:00N 34°41' E 135°11'0 0.0
2017-Sep-16 12:30N 34°41' E 135°11'1 2.6
2017-Sep-16 12:00N 34°40' E 135°11'713.3
2017-Sep-16 11:31N 34°35' E 135°05'5 9.4
2017-Sep-16 10:59N 34°38' E 135°00'815.7
2017-Sep-16 10:30N 34°38' E 135°09'3 6.2
2017-Sep-16 10:00N 34°41' E 135°11'0 0.0
2017-Sep-16 09:30N 34°41' E 135°11'0 0.0
2017-Sep-16 09:00N 34°41' E 135°11'2 4.9
2017-Sep-16 08:30N 34°38' E 135°11'5 9.2
2017-Sep-16 08:00N 34°36' E 135°06'510.3
2017-Sep-16 07:30N 34°37' E 135°12'4 6.7
2017-Sep-16 06:58N 34°41' E 135°11'0 0.0
2017-Sep-16 06:28N 34°41' E 135°11'0 0.0
2017-Sep-16 05:58N 34°41' E 135°11'0 0.0
2017-Sep-16 05:28N 34°41' E 135°11'0 0.0
2017-Sep-16 04:58N 34°41' E 135°11'3 6.1
2017-Sep-16 04:30N 34°38' E 135°10'4 7.2
2017-Sep-16 04:00N 34°37' E 135°06'510.7
2017-Sep-16 03:30N 34°37' E 135°13'4 6.4
2017-Sep-16 02:56N 34°41' E 135°11'0 0.0
2017-Sep-16 02:26N 34°41' E 135°11'0 0.0
2017-Sep-16 01:50N 34°41' E 135°11'0 0.0
2017-Sep-16 01:26N 34°41' E 135°11'0 0.0
2017-Sep-16 00:56N 34°41' E 135°11'0 0.0
2017-Sep-16 00:26N 34°41' E 135°11'0 0.0
2017-Sep-15 23:56N 34°41' E 135°11'0 0.0
2017-Sep-15 23:26N 34°41' E 135°11'0 0.0
2017-Sep-15 22:50N 34°41' E 135°11'0 0.0
2017-Sep-15 22:26N 34°41' E 135°11'0 0.0
2017-Sep-15 21:56N 34°41' E 135°11'0 0.0
2017-Sep-15 21:26N 34°41' E 135°11'0 0.0
2017-Sep-15 20:56N 34°41' E 135°11'0 0.0
2017-Sep-15 20:26N 34°41' E 135°11'0 0.0
2017-Sep-15 19:50N 34°41' E 135°11'0 0.0
2017-Sep-15 19:26N 34°41' E 135°11'0 0.0
2017-Sep-15 18:56N 34°41' E 135°11'0 0.0
2017-Sep-15 18:26N 34°41' E 135°11'0 0.0
2017-Sep-15 17:56N 34°41' E 135°11'0 0.0
2017-Sep-15 17:26N 34°41' E 135°11'0 0.0
2017-Sep-15 16:56N 34°41' E 135°11'0 0.0
2017-Sep-15 16:26N 34°41' E 135°11'0 0.0
2017-Sep-15 15:56N 34°41' E 135°11'0 0.0
2017-Sep-15 15:26N 34°41' E 135°11'0 0.0
2017-Sep-15 14:50N 34°41' E 135°11'0 0.0
2017-Sep-15 14:26N 34°41' E 135°11'0 0.0
2017-Sep-15 13:56N 34°41' E 135°11'0 0.0
2017-Sep-15 13:26N 34°41' E 135°11'0 0.0
2017-Sep-15 12:56N 34°41' E 135°11'0 0.0
2017-Sep-15 12:26N 34°41' E 135°11'1 2.6
2017-Sep-15 12:00N 34°40' E 135°12'611.2
2017-Sep-15 11:30N 34°36' E 135°06'612.4
2017-Sep-15 11:00N 34°37' E 134°59'613.1
2017-Sep-15 10:30N 34°37' E 135°07'510.6
2017-Sep-15 10:00N 34°41' E 135°11'0 0.0
2017-Sep-15 09:30N 34°41' E 135°11'1 2.6
2017-Sep-15 09:00N 34°40' E 135°11'4 8.3
2017-Sep-15 08:30N 34°38' E 135°07'5 9.3
2017-Sep-15 08:00N 34°41' E 135°11'0 0.0
2017-Sep-15 07:24N 34°41' E 135°11'0 0.0
2017-Sep-15 07:00N 34°41' E 135°11'0 0.0
2017-Sep-15 06:30N 34°41' E 135°11'0 0.0
2017-Sep-15 06:00N 34°41' E 135°11'0 0.0
2017-Sep-15 05:30N 34°41' E 135°11'0 0.0
2017-Sep-15 05:00N 34°41' E 135°11'3 5.2
2017-Sep-15 04:30N 34°38' E 135°11'4 7.4
2017-Sep-15 04:00N 34°36' E 135°07'4 7.8
2017-Sep-15 03:29N 34°37' E 135°12'3 7.1
2017-Sep-15 03:00N 34°41' E 135°11'0 0.0
2017-Sep-15 02:28N 34°41' E 135°11'0 0.0
2017-Sep-15 01:58N 34°41' E 135°11'0 0.0
2017-Sep-15 01:28N 34°41' E 135°11'0 0.0
2017-Sep-15 00:58N 34°41' E 135°11'0 0.0
2017-Sep-15 00:28N 34°41' E 135°11'0 0.0
2017-Sep-14 23:58N 34°41' E 135°11'0 0.0
2017-Sep-14 23:28N 34°41' E 135°11'0 0.0
2017-Sep-14 22:58N 34°41' E 135°11'0 0.0
2017-Sep-14 22:28N 34°41' E 135°11'0 0.0
2017-Sep-14 21:58N 34°41' E 135°11'0 0.0
2017-Sep-14 21:22N 34°41' E 135°11'0 0.0
2017-Sep-14 20:58N 34°41' E 135°11'0 0.0
2017-Sep-14 20:28N 34°41' E 135°11'0 0.0
2017-Sep-14 19:58N 34°41' E 135°11'0 0.0
2017-Sep-14 19:28N 34°41' E 135°11'0 0.0
2017-Sep-14 18:58N 34°41' E 135°11'0 0.0
2017-Sep-14 18:28N 34°41' E 135°11'0 0.0
2017-Sep-14 17:58N 34°41' E 135°11'0 0.0
2017-Sep-14 17:22N 34°41' E 135°11'0 0.0
2017-Sep-14 16:46N 34°41' E 135°11'0 0.0
2017-Sep-14 16:22N 34°41' E 135°11'0 0.0
2017-Sep-14 15:58N 34°41' E 135°11'0 0.0
2017-Sep-14 15:28N 34°41' E 135°11'0 0.0
2017-Sep-14 14:58N 34°41' E 135°11'0 0.0
2017-Sep-14 14:28N 34°41' E 135°11'0 0.0
2017-Sep-14 13:58N 34°41' E 135°11'0 0.0
2017-Sep-14 13:28N 34°41' E 135°11'0 0.0
2017-Sep-14 12:58N 34°41' E 135°11'0 0.0
2017-Sep-14 12:28N 34°41' E 135°11'2 3.3
2017-Sep-14 12:00N 34°39' E 135°11'611.7
2017-Sep-14 11:30N 34°35' E 135°06'4 6.8
2017-Sep-14 10:52N 34°37' E 135°01'513.4
2017-Sep-14 10:30N 34°37' E 135°07'510.5
2017-Sep-14 10:01N 34°41' E 135°11'0 0.0
2017-Sep-14 09:30N 34°41' E 135°11'1 2.1
2017-Sep-14 09:01N 34°40' E 135°12'4 8.5
2017-Sep-14 08:30N 34°37' E 135°08'5 9.9
2017-Sep-14 08:00N 34°41' E 135°11'0 0.0
2017-Sep-14 07:26N 34°41' E 135°11'0 0.0
2017-Sep-14 06:56N 34°41' E 135°11'0 0.0
2017-Sep-14 06:20N 34°41' E 135°11'0 0.0
2017-Sep-14 05:56N 34°41' E 135°11'0 0.0
2017-Sep-14 05:20N 34°41' E 135°11'0 0.0
2017-Sep-14 04:56N 34°41' E 135°11'3 6.1
2017-Sep-14 04:30N 34°38' E 135°11'4 8.4
2017-Sep-14 04:01N 34°37' E 135°06'510.9
2017-Sep-14 03:30N 34°38' E 135°12'3 6.0
2017-Sep-14 02:57N 34°41' E 135°11'0 0.0
2017-Sep-14 02:27N 34°41' E 135°11'0 0.0
2017-Sep-14 01:51N 34°41' E 135°11'0 0.0
2017-Sep-14 01:27N 34°41' E 135°11'0 0.0
2017-Sep-14 00:57N 34°41' E 135°11'0 0.0
2017-Sep-14 00:21N 34°41' E 135°11'0 0.0
2017-Sep-13 23:57N 34°41' E 135°11'0 0.0
2017-Sep-13 23:21N 34°41' E 135°11'0 0.0
2017-Sep-13 22:51N 34°41' E 135°11'0 0.0
2017-Sep-13 22:27N 34°41' E 135°11'0 0.0
2017-Sep-13 21:57N 34°41' E 135°11'0 0.0
2017-Sep-13 21:15N 34°41' E 135°11'0 0.0
2017-Sep-13 20:51N 34°41' E 135°11'0 0.0
2017-Sep-13 20:15N 34°41' E 135°11'0 0.0
2017-Sep-13 19:57N 34°41' E 135°11'0 0.0
2017-Sep-13 19:27N 34°41' E 135°11'0 0.0
2017-Sep-13 18:51N 34°41' E 135°11'0 0.0
2017-Sep-13 18:27N 34°41' E 135°11'0 0.0
2017-Sep-13 17:06N 34°41' E 135°11'0 0.1
2017-Sep-13 17:00N 34°41' E 135°11'0 0.0
2017-Sep-13 16:30N 34°41' E 135°11'0 0.0
2017-Sep-13 15:48N 34°41' E 135°11'0 0.0
2017-Sep-13 15:30N 34°41' E 135°11'0 0.0
2017-Sep-13 14:54N 34°41' E 135°11'0 0.0
2017-Sep-13 14:24N 34°41' E 135°11'0 0.0
2017-Sep-13 14:00N 34°41' E 135°11'0 0.0
2017-Sep-13 13:30N 34°41' E 135°11'0 0.0
2017-Sep-13 13:00N 34°41' E 135°11'0 0.0
2017-Sep-13 12:24N 34°41' E 135°11'1 3.6
2017-Sep-13 11:59N 34°39' E 135°11'612.1
2017-Sep-13 11:30N 34°35' E 135°06'611.0
2017-Sep-13 11:00N 34°37' E 134°60'612.2
2017-Sep-13 10:30N 34°37' E 135°07'510.1
2017-Sep-13 10:00N 34°41' E 135°11'0 0.0
2017-Sep-13 09:30N 34°41' E 135°11'1 2.3
2017-Sep-13 09:00N 34°40' E 135°12'4 8.7
2017-Sep-13 08:30N 34°37' E 135°08'510.0
2017-Sep-13 08:00N 34°41' E 135°11'0 0.0
2017-Sep-13 07:30N 34°41' E 135°11'0 0.0
2017-Sep-13 07:00N 34°41' E 135°11'0 0.0
2017-Sep-13 06:30N 34°41' E 135°11'0 0.0
2017-Sep-13 06:00N 34°41' E 135°11'0 0.0
2017-Sep-13 05:30N 34°41' E 135°11'0 0.0
2017-Sep-13 05:00N 34°41' E 135°11'3 5.4
2017-Sep-13 04:30N 34°38' E 135°11'3 5.7
2017-Sep-13 04:00N 34°37' E 135°07'4 8.9
2017-Sep-13 03:30N 34°37' E 135°13'4 7.4
2017-Sep-13 03:00N 34°41' E 135°11'0 0.0
2017-Sep-13 02:20N 34°41' E 135°11'0 0.0
2017-Sep-13 01:56N 34°41' E 135°11'0 0.0
2017-Sep-13 01:26N 34°41' E 135°11'0 0.0
2017-Sep-13 00:56N 34°41' E 135°11'0 0.0
2017-Sep-13 00:26N 34°41' E 135°11'0 0.0
2017-Sep-12 23:56N 34°41' E 135°11'0 0.0
2017-Sep-12 23:26N 34°41' E 135°11'0 0.0
2017-Sep-12 22:56N 34°41' E 135°11'0 0.0
2017-Sep-12 22:26N 34°41' E 135°11'0 0.0
2017-Sep-12 21:56N 34°41' E 135°11'0 0.0
2017-Sep-12 21:26N 34°41' E 135°11'0 0.0
2017-Sep-12 20:44N 34°41' E 135°11'0 0.0
2017-Sep-12 20:20N 34°41' E 135°11'0 0.0
2017-Sep-12 19:56N 34°41' E 135°11'0 0.0
2017-Sep-12 19:26N 34°41' E 135°11'0 0.0
2017-Sep-12 18:56N 34°41' E 135°11'0 0.0
2017-Sep-12 18:26N 34°41' E 135°11'0 0.0
2017-Sep-12 17:56N 34°41' E 135°11'0 0.0
2017-Sep-12 17:14N 34°41' E 135°11'0 0.0
2017-Sep-12 16:50N 34°41' E 135°11'0 0.0
2017-Sep-12 16:26N 34°41' E 135°11'0 0.0
2017-Sep-12 15:56N 34°41' E 135°11'0 0.0
2017-Sep-12 15:26N 34°41' E 135°11'0 0.0
2017-Sep-12 14:56N 34°41' E 135°11'0 0.0
2017-Sep-12 14:26N 34°41' E 135°11'0 0.0
2017-Sep-12 13:56N 34°41' E 135°11'0 0.0
2017-Sep-12 13:26N 34°41' E 135°11'0 0.0
2017-Sep-12 12:56N 34°41' E 135°11'0 0.0
2017-Sep-12 12:26N 34°41' E 135°11'1 3.0
2017-Sep-12 12:00N 34°40' E 135°11'713.8
2017-Sep-12 11:30N 34°35' E 135°05'5 9.8
2017-Sep-12 11:00N 34°37' E 135°00'612.7
2017-Sep-12 10:30N 34°37' E 135°08'5 9.3
2017-Sep-12 10:00N 34°41' E 135°11'0 0.0
2017-Sep-12 09:30N 34°41' E 135°11'1 2.2
2017-Sep-12 09:00N 34°40' E 135°12'4 8.2
2017-Sep-12 08:31N 34°38' E 135°07'5 9.2
2017-Sep-12 08:00N 34°41' E 135°11'0 0.0
2017-Sep-12 07:28N 34°41' E 135°11'0 0.0
2017-Sep-12 06:52N 34°41' E 135°11'0 0.0
2017-Sep-12 06:28N 34°41' E 135°11'0 0.0
2017-Sep-12 05:58N 34°41' E 135°11'0 0.0
2017-Sep-12 05:28N 34°41' E 135°11'0 0.0
2017-Sep-12 05:00N 34°41' E 135°11'3 5.2
2017-Sep-12 04:30N 34°38' E 135°10'4 7.1
2017-Sep-12 04:00N 34°37' E 135°06'5 9.9
2017-Sep-12 03:30N 34°38' E 135°12'3 6.9
2017-Sep-12 03:01N 34°41' E 135°11'0 0.0
2017-Sep-12 02:30N 34°41' E 135°11'  
Track history (hours):
 
Tides and Currents Weather Stations Pressure Air Temp Water Temp Dewpoint Dewpoint Depression Visibility Wind Speed Wind Dir Waves Ship Positions

Luminous Kobe-2

Last reported at 2017-Sep-22 02:01 UTC. Time now 2017-Sep-22 08:10 UTC.
Position N 34°41' E 135°11'.

Length 105 m; draft 4.4 m.

Type: Passenger vessel. MMSI: 431000469.

Date/timePositionNaut miles runAvg speedWind from/ knotsBaromVisibWave heightAir tempDewpointWater temp
2017-Sep-22 02:01N 34°41' E 135°11'0 0.0
2017-Sep-22 01:31N 34°41' E 135°11'0 0.0
2017-Sep-22 01:01N 34°41' E 135°11'0 0.0
2017-Sep-22 00:31N 34°41' E 135°11'0 0.0
2017-Sep-22 00:01N 34°41' E 135°11'0 0.0
2017-Sep-21 23:31N 34°41' E 135°11'0 0.0
2017-Sep-21 23:01N 34°41' E 135°11'0 0.0
2017-Sep-21 22:31N 34°41' E 135°11'0 0.0
2017-Sep-21 22:01N 34°41' E 135°11'0 0.0
2017-Sep-21 21:31N 34°41' E 135°11'0 0.0
2017-Sep-21 21:01N 34°41' E 135°11'0 0.0
2017-Sep-21 20:31N 34°41' E 135°11'0 0.0
2017-Sep-21 20:01N 34°41' E 135°11'0 0.0
2017-Sep-21 19:31N 34°41' E 135°11'0 0.0
2017-Sep-21 19:01N 34°41' E 135°11'0 0.0
2017-Sep-21 18:31N 34°41' E 135°11'0 0.0
2017-Sep-21 18:01N 34°41' E 135°11'0 0.0
2017-Sep-21 17:31N 34°41' E 135°11'0 0.0
2017-Sep-21 17:00N 34°41' E 135°11'0 0.0
2017-Sep-21 16:31N 34°41' E 135°11'0 0.0
2017-Sep-21 16:00N 34°41' E 135°11'0 0.0
2017-Sep-21 15:31N 34°41' E 135°11'0 0.0
2017-Sep-21 15:01N 34°41' E 135°11'0 0.0
2017-Sep-21 14:30N 34°41' E 135°11'0 0.0
2017-Sep-21 14:01N 34°41' E 135°11'0 0.0
2017-Sep-21 13:31N 34°41' E 135°11'0 0.0
2017-Sep-21 13:00N 34°41' E 135°11'0 0.0
2017-Sep-21 12:31N 34°41' E 135°11'2 3.0
2017-Sep-21 12:01N 34°39' E 135°11'713.8
2017-Sep-21 11:30N 34°35' E 135°05'611.1
2017-Sep-21 11:00N 34°37' E 134°58'713.7
2017-Sep-21 10:31N 34°37' E 135°07'610.9
2017-Sep-21 10:00N 34°41' E 135°11'0 0.0
2017-Sep-21 09:25N 34°41' E 135°11'1 2.5
2017-Sep-21 09:01N 34°40' E 135°12'4 8.4
2017-Sep-21 08:31N 34°37' E 135°07'5 9.4
2017-Sep-21 08:00N 34°41' E 135°11'0 0.0
2017-Sep-21 07:30N 34°41' E 135°11'0 0.0
2017-Sep-21 06:42N 34°41' E 135°11'0 0.0
2017-Sep-21 06:30N 34°41' E 135°11'0 0.0
2017-Sep-21 06:00N 34°41' E 135°11'0 0.0
2017-Sep-21 05:30N 34°41' E 135°11'0 0.0
2017-Sep-21 05:00N 34°41' E 135°11'3 5.1
2017-Sep-21 04:30N 34°38' E 135°11'4 7.6
2017-Sep-21 04:00N 34°37' E 135°06'510.2
2017-Sep-21 03:30N 34°38' E 135°12'3 6.8
2017-Sep-21 03:00N 34°41' E 135°11'0 0.0
2017-Sep-21 02:30N 34°41' E 135°11'0 0.0
2017-Sep-21 01:48N 34°41' E 135°11'0 0.0
2017-Sep-21 01:30N 34°41' E 135°11'0 0.0
2017-Sep-21 01:00N 34°41' E 135°11'0 0.0
2017-Sep-21 00:30N 34°41' E 135°11'0 0.0
2017-Sep-21 00:00N 34°41' E 135°11'0 0.0
2017-Sep-20 23:30N 34°41' E 135°11'0 0.0
2017-Sep-20 23:00N 34°41' E 135°11'0 0.0
2017-Sep-20 22:30N 34°41' E 135°11'0 0.0
2017-Sep-20 22:00N 34°41' E 135°11'0 0.0
2017-Sep-20 21:30N 34°41' E 135°11'0 0.0
2017-Sep-20 20:48N 34°41' E 135°11'0 0.0
2017-Sep-20 20:30N 34°41' E 135°11'0 0.0
2017-Sep-20 20:00N 34°41' E 135°11'0 0.0
2017-Sep-20 19:30N 34°41' E 135°11'0 0.0
2017-Sep-20 19:00N 34°41' E 135°11'0 0.0
2017-Sep-20 18:30N 34°41' E 135°11'0 0.0
2017-Sep-20 18:00N 34°41' E 135°11'0 0.0
2017-Sep-20 17:30N 34°41' E 135°11'0 0.0
2017-Sep-20 17:00N 34°41' E 135°11'0 0.0
2017-Sep-20 16:30N 34°41' E 135°11'0 0.0
2017-Sep-20 16:00N 34°41' E 135°11'0 0.0
2017-Sep-20 15:24N 34°41' E 135°11'0 0.0
2017-Sep-20 15:00N 34°41' E 135°11'0 0.0
2017-Sep-20 14:00N 34°41' E 135°11'0 0.0
2017-Sep-20 13:30N 34°41' E 135°11'0 0.0
2017-Sep-20 12:54N 34°41' E 135°11'0 0.0
2017-Sep-20 12:30N 34°41' E 135°11'1 2.4
2017-Sep-20 12:01N 34°40' E 135°12'612.9
2017-Sep-20 11:30N 34°35' E 135°06'611.9
2017-Sep-20 11:00N 34°37' E 134°59'713.5
2017-Sep-20 10:31N 34°37' E 135°07'510.5
2017-Sep-20 10:00N 34°41' E 135°11'0 0.0
2017-Sep-20 09:21N 34°41' E 135°11'1 3.1
2017-Sep-20 09:00N 34°40' E 135°12'4 8.8
2017-Sep-20 08:30N 34°37' E 135°07'510.1
2017-Sep-20 08:01N 34°41' E 135°11'0 0.0
2017-Sep-20 07:28N 34°41' E 135°11'0 0.0
2017-Sep-20 06:58N 34°41' E 135°11'0 0.0
2017-Sep-20 06:28N 34°41' E 135°11'0 0.0
2017-Sep-20 05:46N 34°41' E 135°11'0 0.0
2017-Sep-20 05:22N 34°41' E 135°11'0 0.0
2017-Sep-20 05:00N 34°41' E 135°11'3 5.1
2017-Sep-20 04:30N 34°38' E 135°11'3 5.6
2017-Sep-20 04:00N 34°37' E 135°08'4 7.3
2017-Sep-20 03:30N 34°37' E 135°12'4 6.9
2017-Sep-20 03:00N 34°41' E 135°11'0 0.0
2017-Sep-20 02:30N 34°41' E 135°11'0 0.0
2017-Sep-20 02:00N 34°41' E 135°11'0 0.0
2017-Sep-20 01:30N 34°41' E 135°11'0 0.0
2017-Sep-20 01:00N 34°41' E 135°11'0 0.0
2017-Sep-20 00:30N 34°41' E 135°11'0 0.0
2017-Sep-20 00:00N 34°41' E 135°11'0 0.0
2017-Sep-19 23:30N 34°41' E 135°11'0 0.0
2017-Sep-19 23:00N 34°41' E 135°11'0 0.0
2017-Sep-19 22:30N 34°41' E 135°11'0 0.0
2017-Sep-19 22:00N 34°41' E 135°11'0 0.0
2017-Sep-19 21:30N 34°41' E 135°11'0 0.0
2017-Sep-19 21:00N 34°41' E 135°11'0 0.0
2017-Sep-19 20:30N 34°41' E 135°11'0 0.0
2017-Sep-19 20:00N 34°41' E 135°11'0 0.0
2017-Sep-19 19:30N 34°41' E 135°11'0 0.0
2017-Sep-19 19:00N 34°41' E 135°11'0 0.0
2017-Sep-19 18:30N 34°41' E 135°11'0 0.0
2017-Sep-19 18:00N 34°41' E 135°11'0 0.0
2017-Sep-19 17:30N 34°41' E 135°11'0 0.0
2017-Sep-19 17:00N 34°41' E 135°11'0 0.0
2017-Sep-19 16:30N 34°41' E 135°11'0 0.0
2017-Sep-19 16:00N 34°41' E 135°11'0 0.0
2017-Sep-19 15:30N 34°41' E 135°11'0 0.0
2017-Sep-19 15:00N 34°41' E 135°11'0 0.0
2017-Sep-19 14:30N 34°41' E 135°11'0 0.0
2017-Sep-19 14:00N 34°41' E 135°11'0 0.0
2017-Sep-19 13:30N 34°41' E 135°11'0 0.0
2017-Sep-19 13:00N 34°41' E 135°11'0 0.0
2017-Sep-19 12:30N 34°41' E 135°11'1 2.5
2017-Sep-19 12:00N 34°40' E 135°11'612.8
2017-Sep-19 11:31N 34°35' E 135°06'612.2
2017-Sep-19 11:00N 34°37' E 134°59'713.5
2017-Sep-19 10:30N 34°37' E 135°07'510.7
2017-Sep-19 10:00N 34°41' E 135°11'0 0.0
2017-Sep-19 09:30N 34°41' E 135°11'1 1.8
2017-Sep-19 09:00N 34°40' E 135°12'4 8.7
2017-Sep-19 08:30N 34°37' E 135°07'5 9.5
2017-Sep-19 08:00N 34°41' E 135°11'0 0.0
2017-Sep-19 07:30N 34°41' E 135°11'0 0.0
2017-Sep-19 06:55N 34°41' E 135°11'0 0.0
2017-Sep-19 06:25N 34°41' E 135°11'0 0.0
2017-Sep-19 05:55N 34°41' E 135°11'0 0.0
2017-Sep-19 05:19N 34°41' E 135°11'0 0.0
2017-Sep-19 05:00N 34°41' E 135°11'2 5.0
2017-Sep-19 04:30N 34°38' E 135°11'4 7.5
2017-Sep-19 04:00N 34°37' E 135°07'5 9.9
2017-Sep-19 03:30N 34°38' E 135°13'3 6.9
2017-Sep-19 03:00N 34°41' E 135°11'0 0.0
2017-Sep-19 02:26N 34°41' E 135°11'0 0.0
2017-Sep-19 01:50N 34°41' E 135°11'0 0.0
2017-Sep-19 01:26N 34°41' E 135°11'0 0.0
2017-Sep-19 00:56N 34°41' E 135°11'0 0.0
2017-Sep-19 00:26N 34°41' E 135°11'0 0.0
2017-Sep-18 23:56N 34°41' E 135°11'0 0.0
2017-Sep-18 23:26N 34°41' E 135°11'0 0.0
2017-Sep-18 22:56N 34°41' E 135°11'0 0.0
2017-Sep-18 22:26N 34°41' E 135°11'0 0.0
2017-Sep-18 21:56N 34°41' E 135°11'0 0.0
2017-Sep-18 21:26N 34°41' E 135°11'0 0.0
2017-Sep-18 20:56N 34°41' E 135°11'0 0.0
2017-Sep-18 20:26N 34°41' E 135°11'0 0.0
2017-Sep-18 19:50N 34°41' E 135°11'0 0.0
2017-Sep-18 19:14N 34°41' E 135°11'0 0.0
2017-Sep-18 18:56N 34°41' E 135°11'0 0.0
2017-Sep-18 18:14N 34°41' E 135°11'0 0.0
2017-Sep-18 17:44N 34°41' E 135°11'0 0.0
2017-Sep-18 17:26N 34°41' E 135°11'0 0.0
2017-Sep-18 16:56N 34°41' E 135°11'0 0.0
2017-Sep-18 16:26N 34°41' E 135°11'0 0.0
2017-Sep-18 15:56N 34°41' E 135°11'0 0.0
2017-Sep-18 15:26N 34°41' E 135°11'0 0.0
2017-Sep-18 14:56N 34°41' E 135°11'0 0.0
2017-Sep-18 14:26N 34°41' E 135°11'0 0.0
2017-Sep-18 13:56N 34°41' E 135°11'0 0.0
2017-Sep-18 13:20N 34°41' E 135°11'0 0.0
2017-Sep-18 12:56N 34°41' E 135°11'0 0.0
2017-Sep-18 12:26N 34°41' E 135°11'1 3.0
2017-Sep-18 12:00N 34°40' E 135°11'612.5
2017-Sep-18 11:30N 34°35' E 135°06'611.9
2017-Sep-18 11:01N 34°37' E 134°59'713.9
2017-Sep-18 10:30N 34°37' E 135°07'5 9.8
2017-Sep-18 10:00N 34°41' E 135°11'0 0.0
2017-Sep-18 09:30N 34°41' E 135°11'0 0.0
2017-Sep-18 09:00N 34°41' E 135°11'2 4.6
2017-Sep-18 08:30N 34°39' E 135°11'5 9.0
2017-Sep-18 08:00N 34°37' E 135°06'612.1
2017-Sep-18 07:31N 34°37' E 135°13'4 7.4
2017-Sep-18 07:01N 34°41' E 135°11'0 0.0
2017-Sep-18 06:31N 34°41' E 135°11'0 0.0
2017-Sep-18 06:00N 34°41' E 135°11'0 0.0
2017-Sep-18 05:31N 34°41' E 135°11'0 0.0
2017-Sep-18 05:01N 34°41' E 135°11'3 5.3
2017-Sep-18 04:30N 34°38' E 135°11'3 5.7
2017-Sep-18 04:01N 34°37' E 135°08'4 7.2
2017-Sep-18 03:30N 34°38' E 135°12'3 6.4
2017-Sep-18 02:58N 34°41' E 135°11'0 0.0
2017-Sep-18 02:28N 34°41' E 135°11'0 0.0
2017-Sep-18 01:58N 34°41' E 135°11'0 0.0
2017-Sep-18 01:22N 34°41' E 135°11'0 0.0
2017-Sep-18 00:58N 34°41' E 135°11'0 0.0
2017-Sep-18 00:28N 34°41' E 135°11'0 0.0
2017-Sep-17 23:58N 34°41' E 135°11'0 0.0
2017-Sep-17 23:28N 34°41' E 135°11'0 0.0
2017-Sep-17 22:58N 34°41' E 135°11'1 1.5
2017-Sep-17 22:30N 34°40' E 135°12'713.1
2017-Sep-17 22:00N 34°34' E 135°11'610.3
2017-Sep-17 21:27N 34°28' E 135°10'0 0.1
2017-Sep-17 20:57N 34°28' E 135°10'0 0.0
2017-Sep-17 20:27N 34°28' E 135°10'0 0.0
2017-Sep-17 19:58N 34°28' E 135°10'0 0.0
2017-Sep-17 19:21N 34°28' E 135°10'0 0.0
2017-Sep-17 19:00N 34°28' E 135°10'0 0.0
2017-Sep-17 18:21N 34°28' E 135°10'0 0.0
2017-Sep-17 17:49N 34°28' E 135°10'0 0.0
2017-Sep-17 17:16N 34°28' E 135°10'0 0.0
2017-Sep-17 16:55N 34°28' E 135°10'0 0.0
2017-Sep-17 16:23N 34°28' E 135°10'0 0.0
2017-Sep-17 15:51N 34°28' E 135°10'0 0.0
2017-Sep-17 15:28N 34°28' E 135°10'0 0.0
2017-Sep-17 14:58N 34°28' E 135°10'0 0.0
2017-Sep-17 14:29N 34°28' E 135°10'0 0.1
2017-Sep-17 13:55N 34°28' E 135°10'0 0.3
2017-Sep-17 13:30N 34°28' E 135°10'0 0.1
2017-Sep-17 13:00N 34°28' E 135°10'0 0.1
2017-Sep-17 12:29N 34°28' E 135°10'0 0.1
2017-Sep-17 11:59N 34°28' E 135°10'0 0.2
2017-Sep-17 11:26N 34°28' E 135°10'0 0.0
2017-Sep-17 11:00N 34°28' E 135°10'0 0.0
2017-Sep-17 10:30N 34°28' E 135°10'0 0.1
2017-Sep-17 10:00N 34°28' E 135°10'0 0.0
2017-Sep-17 09:23N 34°28' E 135°10'0 0.0
2017-Sep-17 08:53N 34°28' E 135°10'0 0.0
2017-Sep-17 08:29N 34°28' E 135°10'0 0.0
2017-Sep-17 07:59N 34°28' E 135°10'0 0.0
2017-Sep-17 07:29N 34°28' E 135°10'0 0.0
2017-Sep-17 06:53N 34°28' E 135°10'0 0.1
2017-Sep-17 06:29N 34°28' E 135°10'0 0.0
2017-Sep-17 05:59N 34°28' E 135°10'0 0.0
2017-Sep-17 05:23N 34°28' E 135°10'0 0.0
2017-Sep-17 04:59N 34°28' E 135°10'0 0.0
2017-Sep-17 04:23N 34°28' E 135°10'0 0.0
2017-Sep-17 03:59N 34°28' E 135°10'0 0.0
2017-Sep-17 03:29N 34°28' E 135°10'0 0.0
2017-Sep-17 02:59N 34°28' E 135°10'0 0.0
2017-Sep-17 02:23N 34°28' E 135°10'0 0.0
2017-Sep-17 01:59N 34°28' E 135°10'0 0.0
2017-Sep-17 01:23N 34°28' E 135°10'0 0.0
2017-Sep-17 00:59N 34°28' E 135°10'0 0.0
2017-Sep-17 00:23N 34°28' E 135°10'0 0.0
2017-Sep-16 23:53N 34°28' E 135°10'0 0.0
2017-Sep-16 23:29N 34°28' E 135°10'0 0.0
2017-Sep-16 22:53N 34°28' E 135°10'0 0.0
2017-Sep-16 22:23N 34°28' E 135°10'0 0.0
2017-Sep-16 21:53N 34°28' E 135°10'0 0.1
2017-Sep-16 21:29N 34°28' E 135°10'0 0.0
2017-Sep-16 20:59N 34°28' E 135°10'0 0.1
2017-Sep-16 20:29N 34°28' E 135°10'0 0.0
2017-Sep-16 19:59N 34°28' E 135°10'0 0.0
2017-Sep-16 19:23N 34°28' E 135°10'0 0.0
2017-Sep-16 18:47N 34°28' E 135°10'0 0.1
2017-Sep-16 18:29N 34°28' E 135°10'0 0.0
2017-Sep-16 18:00N 34°28' E 135°10'0 0.0
2017-Sep-16 17:29N 34°28' E 135°10'0 0.0
2017-Sep-16 16:59N 34°28' E 135°10'0 0.0
2017-Sep-16 16:23N 34°28' E 135°10'0 0.0
2017-Sep-16 15:47N 34°28' E 135°10'0 0.0
2017-Sep-16 15:23N 34°28' E 135°10'1 3.3
2017-Sep-16 15:00N 34°29' E 135°10'815.7
2017-Sep-16 14:30N 34°37' E 135°11'4 8.2
2017-Sep-16 14:00N 34°41' E 135°11'0 0.0
2017-Sep-16 13:30N 34°41' E 135°11'0 0.0
2017-Sep-16 13:00N 34°41' E 135°11'0 0.0
2017-Sep-16 12:30N 34°41' E 135°11'1 2.6
2017-Sep-16 12:00N 34°40' E 135°11'713.3
2017-Sep-16 11:31N 34°35' E 135°05'5 9.4
2017-Sep-16 10:59N 34°38' E 135°00'815.7
2017-Sep-16 10:30N 34°38' E 135°09'3 6.2
2017-Sep-16 10:00N 34°41' E 135°11'0 0.0
2017-Sep-16 09:30N 34°41' E 135°11'0 0.0
2017-Sep-16 09:00N 34°41' E 135°11'2 4.9
2017-Sep-16 08:30N 34°38' E 135°11'5 9.2
2017-Sep-16 08:00N 34°36' E 135°06'510.3
2017-Sep-16 07:30N 34°37' E 135°12'4 6.7
2017-Sep-16 06:58N 34°41' E 135°11'0 0.0
2017-Sep-16 06:28N 34°41' E 135°11'0 0.0
2017-Sep-16 05:58N 34°41' E 135°11'0 0.0
2017-Sep-16 05:28N 34°41' E 135°11'0 0.0
2017-Sep-16 04:58N 34°41' E 135°11'3 6.1
2017-Sep-16 04:30N 34°38' E 135°10'4 7.2
2017-Sep-16 04:00N 34°37' E 135°06'510.7
2017-Sep-16 03:30N 34°37' E 135°13'4 6.4
2017-Sep-16 02:56N 34°41' E 135°11'0 0.0
2017-Sep-16 02:26N 34°41' E 135°11'0 0.0
2017-Sep-16 01:50N 34°41' E 135°11'0 0.0
2017-Sep-16 01:26N 34°41' E 135°11'0 0.0
2017-Sep-16 00:56N 34°41' E 135°11'0 0.0
2017-Sep-16 00:26N 34°41' E 135°11'0 0.0
2017-Sep-15 23:56N 34°41' E 135°11'0 0.0
2017-Sep-15 23:26N 34°41' E 135°11'0 0.0
2017-Sep-15 22:50N 34°41' E 135°11'0 0.0
2017-Sep-15 22:26N 34°41' E 135°11'0 0.0
2017-Sep-15 21:56N 34°41' E 135°11'0 0.0
2017-Sep-15 21:26N 34°41' E 135°11'0 0.0
2017-Sep-15 20:56N 34°41' E 135°11'0 0.0
2017-Sep-15 20:26N 34°41' E 135°11'0 0.0
2017-Sep-15 19:50N 34°41' E 135°11'0 0.0
2017-Sep-15 19:26N 34°41' E 135°11'0 0.0
2017-Sep-15 18:56N 34°41' E 135°11'0 0.0
2017-Sep-15 18:26N 34°41' E 135°11'0 0.0
2017-Sep-15 17:56N 34°41' E 135°11'0 0.0
2017-Sep-15 17:26N 34°41' E 135°11'0 0.0
2017-Sep-15 16:56N 34°41' E 135°11'0 0.0
2017-Sep-15 16:26N 34°41' E 135°11'0 0.0
2017-Sep-15 15:56N 34°41' E 135°11'0 0.0
2017-Sep-15 15:26N 34°41' E 135°11'0 0.0
2017-Sep-15 14:50N 34°41' E 135°11'0 0.0
2017-Sep-15 14:26N 34°41' E 135°11'0 0.0
2017-Sep-15 13:56N 34°41' E 135°11'0 0.0
2017-Sep-15 13:26N 34°41' E 135°11'0 0.0
2017-Sep-15 12:56N 34°41' E 135°11'0 0.0
2017-Sep-15 12:26N 34°41' E 135°11'1 2.6
2017-Sep-15 12:00N 34°40' E 135°12'611.2
2017-Sep-15 11:30N 34°36' E 135°06'612.4
2017-Sep-15 11:00N 34°37' E 134°59'613.1
2017-Sep-15 10:30N 34°37' E 135°07'510.6
2017-Sep-15 10:00N 34°41' E 135°11'0 0.0
2017-Sep-15 09:30N 34°41' E 135°11'1 2.6
2017-Sep-15 09:00N 34°40' E 135°11'4 8.3
2017-Sep-15 08:30N 34°38' E 135°07'5 9.3
2017-Sep-15 08:00N 34°41' E 135°11'0 0.0
2017-Sep-15 07:24N 34°41' E 135°11'0 0.0
2017-Sep-15 07:00N 34°41' E 135°11'0 0.0
2017-Sep-15 06:30N 34°41' E 135°11'0 0.0
2017-Sep-15 06:00N 34°41' E 135°11'0 0.0
2017-Sep-15 05:30N 34°41' E 135°11'0 0.0
2017-Sep-15 05:00N 34°41' E 135°11'3 5.2
2017-Sep-15 04:30N 34°38' E 135°11'4 7.4
2017-Sep-15 04:00N 34°36' E 135°07'4 7.8
2017-Sep-15 03:29N 34°37' E 135°12'3 7.1
2017-Sep-15 03:00N 34°41' E 135°11'0 0.0
2017-Sep-15 02:28N 34°41' E 135°11'0 0.0
2017-Sep-15 01:58N 34°41' E 135°11'0 0.0
2017-Sep-15 01:28N 34°41' E 135°11'0 0.0
2017-Sep-15 00:58N 34°41' E 135°11'0 0.0
2017-Sep-15 00:28N 34°41' E 135°11'0 0.0
2017-Sep-14 23:58N 34°41' E 135°11'0 0.0
2017-Sep-14 23:28N 34°41' E 135°11'0 0.0
2017-Sep-14 22:58N 34°41' E 135°11'0 0.0
2017-Sep-14 22:28N 34°41' E 135°11'0 0.0
2017-Sep-14 21:58N 34°41' E 135°11'0 0.0
2017-Sep-14 21:22N 34°41' E 135°11'0 0.0
2017-Sep-14 20:58N 34°41' E 135°11'0 0.0
2017-Sep-14 20:28N 34°41' E 135°11'0 0.0
2017-Sep-14 19:58N 34°41' E 135°11'0 0.0
2017-Sep-14 19:28N 34°41' E 135°11'0 0.0
2017-Sep-14 18:58N 34°41' E 135°11'0 0.0
2017-Sep-14 18:28N 34°41' E 135°11'0 0.0
2017-Sep-14 17:58N 34°41' E 135°11'0 0.0
2017-Sep-14 17:22N 34°41' E 135°11'0 0.0
2017-Sep-14 16:46N 34°41' E 135°11'0 0.0
2017-Sep-14 16:22N 34°41' E 135°11'0 0.0
2017-Sep-14 15:58N 34°41' E 135°11'0 0.0
2017-Sep-14 15:28N 34°41' E 135°11'0 0.0
2017-Sep-14 14:58N 34°41' E 135°11'0 0.0
2017-Sep-14 14:28N 34°41' E 135°11'0 0.0
2017-Sep-14 13:58N 34°41' E 135°11'0 0.0
2017-Sep-14 13:28N 34°41' E 135°11'0 0.0
2017-Sep-14 12:58N 34°41' E 135°11'0 0.0
2017-Sep-14 12:28N 34°41' E 135°11'2 3.3
2017-Sep-14 12:00N 34°39' E 135°11'611.7
2017-Sep-14 11:30N 34°35' E 135°06'4 6.8
2017-Sep-14 10:52N 34°37' E 135°01'513.4
2017-Sep-14 10:30N 34°37' E 135°07'510.5
2017-Sep-14 10:01N 34°41' E 135°11'0 0.0
2017-Sep-14 09:30N 34°41' E 135°11'1 2.1
2017-Sep-14 09:01N 34°40' E 135°12'4 8.5
2017-Sep-14 08:30N 34°37' E 135°08'5 9.9
2017-Sep-14 08:00N 34°41' E 135°11'0 0.0
2017-Sep-14 07:26N 34°41' E 135°11'0 0.0
2017-Sep-14 06:56N 34°41' E 135°11'0 0.0
2017-Sep-14 06:20N 34°41' E 135°11'0 0.0
2017-Sep-14 05:56N 34°41' E 135°11'0 0.0
2017-Sep-14 05:20N 34°41' E 135°11'0 0.0
2017-Sep-14 04:56N 34°41' E 135°11'3 6.1
2017-Sep-14 04:30N 34°38' E 135°11'4 8.4
2017-Sep-14 04:01N 34°37' E 135°06'510.9
2017-Sep-14 03:30N 34°38' E 135°12'3 6.0
2017-Sep-14 02:57N 34°41' E 135°11'0 0.0
2017-Sep-14 02:27N 34°41' E 135°11'0 0.0
2017-Sep-14 01:51N 34°41' E 135°11'0 0.0
2017-Sep-14 01:27N 34°41' E 135°11'0 0.0
2017-Sep-14 00:57N 34°41' E 135°11'0 0.0
2017-Sep-14 00:21N 34°41' E 135°11'0 0.0
2017-Sep-13 23:57N 34°41' E 135°11'0 0.0
2017-Sep-13 23:21N 34°41' E 135°11'0 0.0
2017-Sep-13 22:51N 34°41' E 135°11'0 0.0
2017-Sep-13 22:27N 34°41' E 135°11'0 0.0
2017-Sep-13 21:57N 34°41' E 135°11'0 0.0
2017-Sep-13 21:15N 34°41' E 135°11'0 0.0
2017-Sep-13 20:51N 34°41' E 135°11'0 0.0
2017-Sep-13 20:15N 34°41' E 135°11'0 0.0
2017-Sep-13 19:57N 34°41' E 135°11'0 0.0
2017-Sep-13 19:27N 34°41' E 135°11'0 0.0
2017-Sep-13 18:51N 34°41' E 135°11'0 0.0
2017-Sep-13 18:27N 34°41' E 135°11'0 0.0
2017-Sep-13 17:06N 34°41' E 135°11'0 0.1
2017-Sep-13 17:00N 34°41' E 135°11'0 0.0
2017-Sep-13 16:30N 34°41' E 135°11'0 0.0
2017-Sep-13 15:48N 34°41' E 135°11'0 0.0
2017-Sep-13 15:30N 34°41' E 135°11'0 0.0
2017-Sep-13 14:54N 34°41' E 135°11'0 0.0
2017-Sep-13 14:24N 34°41' E 135°11'0 0.0
2017-Sep-13 14:00N 34°41' E 135°11'0 0.0
2017-Sep-13 13:30N 34°41' E 135°11'0 0.0
2017-Sep-13 13:00N 34°41' E 135°11'0 0.0
2017-Sep-13 12:24N 34°41' E 135°11'1 3.6
2017-Sep-13 11:59N 34°39' E 135°11'612.1
2017-Sep-13 11:30N 34°35' E 135°06'611.0
2017-Sep-13 11:00N 34°37' E 134°60'612.2
2017-Sep-13 10:30N 34°37' E 135°07'510.1
2017-Sep-13 10:00N 34°41' E 135°11'0 0.0
2017-Sep-13 09:30N 34°41' E 135°11'1 2.3
2017-Sep-13 09:00N 34°40' E 135°12'4 8.7
2017-Sep-13 08:30N 34°37' E 135°08'510.0
2017-Sep-13 08:00N 34°41' E 135°11'0 0.0
2017-Sep-13 07:30N 34°41' E 135°11'0 0.0
2017-Sep-13 07:00N 34°41' E 135°11'0 0.0
2017-Sep-13 06:30N 34°41' E 135°11'0 0.0
2017-Sep-13 06:00N 34°41' E 135°11'0 0.0
2017-Sep-13 05:30N 34°41' E 135°11'0 0.0
2017-Sep-13 05:00N 34°41' E 135°11'3 5.4
2017-Sep-13 04:30N 34°38' E 135°11'3 5.7
2017-Sep-13 04:00N 34°37' E 135°07'4 8.9
2017-Sep-13 03:30N 34°37' E 135°13'4 7.4
2017-Sep-13 03:00N 34°41' E 135°11'0 0.0
2017-Sep-13 02:20N 34°41' E 135°11'0 0.0
2017-Sep-13 01:56N 34°41' E 135°11'0 0.0
2017-Sep-13 01:26N 34°41' E 135°11'0 0.0
2017-Sep-13 00:56N 34°41' E 135°11'0 0.0
2017-Sep-13 00:26N 34°41' E 135°11'0 0.0
2017-Sep-12 23:56N 34°41' E 135°11'0 0.0
2017-Sep-12 23:26N 34°41' E 135°11'0 0.0
2017-Sep-12 22:56N 34°41' E 135°11'0 0.0
2017-Sep-12 22:26N 34°41' E 135°11'0 0.0
2017-Sep-12 21:56N 34°41' E 135°11'0 0.0
2017-Sep-12 21:26N 34°41' E 135°11'0 0.0
2017-Sep-12 20:44N 34°41' E 135°11'0 0.0
2017-Sep-12 20:20N 34°41' E 135°11'0 0.0
2017-Sep-12 19:56N 34°41' E 135°11'0 0.0
2017-Sep-12 19:26N 34°41' E 135°11'0 0.0
2017-Sep-12 18:56N 34°41' E 135°11'0 0.0
2017-Sep-12 18:26N 34°41' E 135°11'0 0.0
2017-Sep-12 17:56N 34°41' E 135°11'0 0.0
2017-Sep-12 17:14N 34°41' E 135°11'0 0.0
2017-Sep-12 16:50N 34°41' E 135°11'0 0.0
2017-Sep-12 16:26N 34°41' E 135°11'0 0.0
2017-Sep-12 15:56N 34°41' E 135°11'0 0.0
2017-Sep-12 15:26N 34°41' E 135°11'0 0.0
2017-Sep-12 14:56N 34°41' E 135°11'0 0.0
2017-Sep-12 14:26N 34°41' E 135°11'0 0.0
2017-Sep-12 13:56N 34°41' E 135°11'0 0.0
2017-Sep-12 13:26N 34°41' E 135°11'0 0.0
2017-Sep-12 12:56N 34°41' E 135°11'0 0.0
2017-Sep-12 12:26N 34°41' E 135°11'1 3.0
2017-Sep-12 12:00N 34°40' E 135°11'713.8
2017-Sep-12 11:30N 34°35' E 135°05'5 9.8
2017-Sep-12 11:00N 34°37' E 135°00'612.7
2017-Sep-12 10:30N 34°37' E 135°08'5 9.3
2017-Sep-12 10:00N 34°41' E 135°11'0 0.0
2017-Sep-12 09:30N 34°41' E 135°11'1 2.2
2017-Sep-12 09:00N 34°40' E 135°12'4 8.2
2017-Sep-12 08:31N 34°38' E 135°07'5 9.2
2017-Sep-12 08:00N 34°41' E 135°11'0 0.0
2017-Sep-12 07:28N 34°41' E 135°11'0 0.0
2017-Sep-12 06:52N 34°41' E 135°11'0 0.0
2017-Sep-12 06:28N 34°41' E 135°11'0 0.0
2017-Sep-12 05:58N 34°41' E 135°11'0 0.0
2017-Sep-12 05:28N 34°41' E 135°11'0 0.0
2017-Sep-12 05:00N 34°41' E 135°11'3 5.2
2017-Sep-12 04:30N 34°38' E 135°10'4 7.1
2017-Sep-12 04:00N 34°37' E 135°06'5 9.9
2017-Sep-12 03:30N 34°38' E 135°12'3 6.9
2017-Sep-12 03:01N 34°41' E 135°11'0 0.0
2017-Sep-12 02:30N 34°41' E 135°11'  

Dump ship's entire track history